Time;durP1;ratioP1;P1;durP2;ratioP2;P2;SDS_P1;SDS_P2;PMS_P1;PMS_P2;Temp;Humidity;BMP_temperature;BMP_pressure;BME280_temperature;BME280_humidity;BME280_pressure;Samples;Min_cycle;Max_cycle;Signal;HPM_P1;HPM_P2
2022/01/14 00:01:16;;;;;;;1.05;1.02;;;5.40;99.90;;;;;;5080261;28;20037;-83
2022/01/14 00:03:42;;;;;;;0.80;0.80;;;5.40;99.90;;;;;;5078197;28;20063;-83
2022/01/14 00:06:08;;;;;;;1.20;1.10;;;5.40;99.90;;;;;;5059903;28;20029;-83
2022/01/14 00:08:34;;;;;;;2.00;1.38;;;5.40;99.90;;;;;;5058804;28;20033;-83
2022/01/14 00:11:00;;;;;;;1.05;1.00;;;5.50;99.90;;;;;;5075022;28;20041;-84
2022/01/14 00:13:52;;;;;;;1.20;1.17;;;5.40;99.90;;;;;;5062848;28;20037;-83
2022/01/14 00:16:19;;;;;;;1.30;1.20;;;5.40;99.90;;;;;;5064440;28;20040;-84
2022/01/14 00:18:45;;;;;;;0.65;0.65;;;5.50;99.90;;;;;;5058366;28;20048;-83
2022/01/14 00:21:11;;;;;;;0.90;0.88;;;5.50;99.90;;;;;;5078503;28;20045;-83
2022/01/14 00:23:39;;;;;;;2.35;2.15;;;5.40;99.90;;;;;;5081506;28;20560;-83
2022/01/14 00:34:05;;;;;;;4.57;1.25;;;5.50;99.90;;;;;;5076762;28;20137;-84
2022/01/14 00:36:31;;;;;;;1.23;1.13;;;5.50;99.90;;;;;;5071333;28;20033;-83
2022/01/14 00:38:56;;;;;;;1.27;1.17;;;5.60;99.90;;;;;;5073553;28;20036;-84
2022/01/14 00:41:22;;;;;;;7.75;3.13;;;5.60;99.90;;;;;;5076743;28;20048;-84
2022/01/14 00:43:50;;;;;;;0.98;0.98;;;5.50;99.90;;;;;;5056176;28;20072;-83
2022/01/14 00:46:16;;;;;;;2.38;2.03;;;5.40;99.90;;;;;;5050375;28;20029;-84
2022/01/14 00:48:41;;;;;;;1.33;1.23;;;5.50;99.90;;;;;;5061811;28;20486;-83
2022/01/14 00:51:07;;;;;;;0.98;0.98;;;5.50;99.90;;;;;;5074116;28;20041;-84
2022/01/14 00:53:32;;;;;;;1.40;1.30;;;5.50;99.90;;;;;;5075835;28;20036;-84
2022/01/14 00:56:07;;;;;;;1.95;1.70;;;5.50;99.90;;;;;;5087216;28;20045;-84
2022/01/14 01:01:17;;;;;;;10.52;2.00;;;5.50;99.90;;;;;;5081656;28;20063;-84
2022/01/14 01:03:42;;;;;;;2.83;1.88;;;5.50;99.90;;;;;;5077599;28;20108;-84
2022/01/14 01:06:08;;;;;;;1.00;0.93;;;5.50;99.90;;;;;;5070837;28;20040;-84
2022/01/14 01:08:35;;;;;;;1.98;1.88;;;5.50;99.90;;;;;;5058108;28;20063;-84
2022/01/14 01:11:04;;;;;;;0.75;0.75;;;5.50;99.90;;;;;;5076391;28;20052;-83
2022/01/14 01:13:34;;;;;;;26.80;2.45;;;5.30;99.90;;;;;;5053493;28;20041;-85
2022/01/14 01:16:00;;;;;;;0.98;0.98;;;5.30;99.90;;;;;;5067443;28;20505;-83
2022/01/14 01:18:26;;;;;;;2.60;1.50;;;5.30;99.90;;;;;;5071492;28;20059;-84
2022/01/14 01:20:52;;;;;;;1.33;1.23;;;5.30;99.90;;;;;;5070122;28;20053;-84
2022/01/14 01:23:18;;;;;;;0.93;0.93;;;5.20;99.90;;;;;;5069460;28;20424;-84
2022/01/14 01:25:49;;;;;;;1.98;1.80;;;5.20;99.90;;;;;;5059633;28;20040;-84
2022/01/14 01:28:15;;;;;;;1.23;1.17;;;5.20;99.90;;;;;;5074619;28;20037;-84
2022/01/14 01:31:05;;;;;;;1.10;1.00;;;5.20;99.90;;;;;;5079897;28;20044;-84
2022/01/14 01:33:32;;;;;;;6.45;1.80;;;5.20;99.90;;;;;;5051317;28;20036;-84
2022/01/14 01:35:57;;;;;;;8.88;1.75;;;5.20;99.90;;;;;;5074762;28;20045;-84
2022/01/14 01:38:23;;;;;;;1.20;1.10;;;5.20;99.90;;;;;;5068274;28;20051;-84
2022/01/14 01:40:49;;;;;;;0.75;0.75;;;5.20;99.90;;;;;;5065143;28;20052;-84
2022/01/14 01:43:16;;;;;;;1.67;1.58;;;5.20;99.90;;;;;;5060170;28;20051;-84
2022/01/14 01:45:47;;;;;;;0.98;0.98;;;5.20;99.90;;;;;;5066420;28;20033;-84
2022/01/14 01:48:12;;;;;;;1.27;1.17;;;5.20;99.90;;;;;;5073197;28;20045;-84
2022/01/14 01:50:38;;;;;;;1.40;1.30;;;5.20;99.90;;;;;;5068358;28;20386;-84
2022/01/14 01:53:04;;;;;;;0.98;0.98;;;5.20;99.90;;;;;;5069119;28;20092;-84
2022/01/14 01:55:30;;;;;;;0.90;0.90;;;5.20;99.90;;;;;;5067387;28;20097;-84
2022/01/14 01:57:56;;;;;;;1.77;0.95;;;5.20;99.90;;;;;;5058374;28;20064;-84
2022/01/14 02:00:26;;;;;;;2.00;1.10;;;5.20;99.90;;;;;;5057457;28;20090;-84
2022/01/14 02:02:54;;;;;;;2.08;1.30;;;5.20;99.90;;;;;;5069759;28;20045;-84
2022/01/14 02:05:22;;;;;;;0.70;0.70;;;5.20;99.90;;;;;;5068526;28;20067;-84
2022/01/14 02:07:48;;;;;;;0.82;0.82;;;5.20;99.90;;;;;;5060012;28;20036;-84
2022/01/14 02:10:13;;;;;;;26.48;1.70;;;5.20;99.90;;;;;;5057774;28;20048;-84
2022/01/14 02:12:48;;;;;;;0.90;0.90;;;5.30;99.90;;;;;;5069331;28;20059;-84
2022/01/14 02:23:27;;;;;;;0.95;0.95;;;5.30;99.90;;;;;;5074226;28;20052;-84
2022/01/14 02:25:53;;;;;;;1.33;1.23;;;5.20;99.90;;;;;;5066366;28;20072;-84
2022/01/14 02:28:20;;;;;;;2.45;1.25;;;5.30;99.90;;;;;;5052056;28;20037;-84
2022/01/14 02:30:48;;;;;;;1.00;1.00;;;5.30;99.90;;;;;;5072255;28;20063;-83
2022/01/14 02:33:16;;;;;;;4.25;0.98;;;5.30;99.90;;;;;;5071921;28;20095;-84
2022/01/14 02:35:44;;;;;;;2.13;1.77;;;5.30;99.90;;;;;;5068694;28;20055;-83
2022/01/14 02:38:12;;;;;;;28.67;2.10;;;5.30;99.90;;;;;;5065632;28;20060;-84
2022/01/14 02:40:38;;;;;;;5.13;2.13;;;5.30;99.90;;;;;;5073212;28;20048;-82
2022/01/14 02:43:06;;;;;;;2.25;1.80;;;5.40;99.90;;;;;;5069344;28;20108;-82
2022/01/14 02:45:34;;;;;;;5.15;1.92;;;5.40;99.90;;;;;;5061308;28;20064;-83
2022/01/14 02:48:03;;;;;;;0.77;0.77;;;5.40;99.90;;;;;;5067916;28;20087;-83
2022/01/14 02:50:37;;;;;;;0.82;0.82;;;5.40;99.90;;;;;;5071340;28;20037;-83
2022/01/14 02:53:13;;;;;;;1.70;1.42;;;5.40;99.90;;;;;;5049607;28;20049;-84
2022/01/14 02:55:43;;;;;;;1.83;1.73;;;5.40;99.90;;;;;;5046845;28;20076;-84
2022/01/14 02:58:10;;;;;;;2.15;1.58;;;5.40;99.90;;;;;;5070195;28;20052;-84
2022/01/14 03:00:37;;;;;;;1.40;1.30;;;5.40;99.90;;;;;;5070244;28;20086;-84
2022/01/14 03:03:05;;;;;;;2.53;1.67;;;5.40;99.90;;;;;;5056689;28;20040;-83
2022/01/14 03:05:31;;;;;;;1.13;1.02;;;5.40;99.90;;;;;;5049913;28;20466;-84
2022/01/14 03:07:58;;;;;;;1.13;1.02;;;5.40;99.90;;;;;;5052955;28;20044;-83
2022/01/14 03:10:24;;;;;;;1.25;1.17;;;5.50;99.90;;;;;;5052025;28;20036;-84
2022/01/14 03:12:50;;;;;;;0.93;0.88;;;5.40;99.90;;;;;;5067038;28;20044;-83
2022/01/14 03:15:16;;;;;;;1.00;0.90;;;5.40;99.90;;;;;;5075935;28;20040;-84
2022/01/14 03:17:42;;;;;;;1.40;1.17;;;5.40;99.90;;;;;;5070299;28;20128;-83
2022/01/14 03:20:13;;;;;;;1.52;1.42;;;5.50;99.90;;;;;;5078008;28;20585;-83
2022/01/14 03:22:42;;;;;;;10.60;2.72;;;5.50;99.90;;;;;;5072939;28;20144;-84
2022/01/14 03:27:53;;;;;;;1.33;1.20;;;5.40;99.90;;;;;;5072998;28;20044;-84
2022/01/14 03:30:19;;;;;;;1.50;1.40;;;5.50;99.90;;;;;;5057397;28;20066;-84
2022/01/14 03:32:45;;;;;;;2.25;2.08;;;5.50;99.90;;;;;;5073806;28;20059;-83
2022/01/14 03:35:12;;;;;;;1.48;1.23;;;5.50;99.90;;;;;;5071024;28;20055;-84
2022/01/14 03:37:37;;;;;;;0.80;0.80;;;5.50;99.90;;;;;;5075731;28;20514;-83
2022/01/14 03:40:06;;;;;;;1.38;1.25;;;5.50;99.90;;;;;;5073511;28;20048;-83
2022/01/14 03:42:32;;;;;;;1.33;1.23;;;5.50;99.90;;;;;;5059628;28;20052;-84
2022/01/14 03:44:57;;;;;;;1.20;1.10;;;5.60;99.90;;;;;;5078162;28;20041;-84
2022/01/14 03:47:23;;;;;;;1.27;1.17;;;5.60;99.90;;;;;;5064421;28;20120;-84
2022/01/14 03:49:49;;;;;;;1.20;1.10;;;5.60;99.90;;;;;;5065402;28;20251;-83
2022/01/14 03:52:15;;;;;;;1.88;1.77;;;5.60;99.90;;;;;;5073737;28;20045;-84
2022/01/14 03:54:40;;;;;;;1.08;1.05;;;5.60;99.90;;;;;;5065418;28;20123;-82
2022/01/14 03:57:06;;;;;;;0.88;0.88;;;5.60;99.90;;;;;;5061346;28;20071;-84
2022/01/14 03:59:32;;;;;;;1.65;1.20;;;5.60;99.90;;;;;;5067180;28;20063;-83
2022/01/14 04:01:58;;;;;;;0.90;0.90;;;5.60;99.90;;;;;;5067346;28;20045;-83
2022/01/14 04:04:23;;;;;;;0.70;0.70;;;5.50;99.90;;;;;;5061774;28;20151;-83
2022/01/14 04:06:49;;;;;;;2.88;1.90;;;5.60;99.90;;;;;;5043821;28;20052;-83
2022/01/14 04:09:15;;;;;;;1.80;1.30;;;5.60;99.90;;;;;;5048016;28;20044;-83
2022/01/14 04:11:43;;;;;;;2.00;1.88;;;5.60;99.90;;;;;;5060553;28;20083;-83
2022/01/14 04:16:49;;;;;;;0.70;0.70;;;5.60;99.90;;;;;;5065083;28;20057;-83
2022/01/14 04:19:14;;;;;;;3.03;1.63;;;5.60;99.90;;;;;;5059434;28;20128;-83
2022/01/14 04:21:40;;;;;;;3.80;1.88;;;5.60;99.90;;;;;;5060754;28;20056;-82
2022/01/14 04:24:06;;;;;;;1.95;1.85;;;5.60;99.90;;;;;;5065430;28;20048;-84
2022/01/14 04:26:31;;;;;;;1.40;1.30;;;5.90;99.90;;;;;;5048642;28;20132;-83
2022/01/14 04:28:57;;;;;;;0.98;0.98;;;5.60;99.90;;;;;;5051113;28;20106;-84
2022/01/14 04:31:22;;;;;;;0.80;0.80;;;5.60;99.90;;;;;;5063297;28;20045;-83
2022/01/14 04:33:48;;;;;;;0.65;0.65;;;5.60;99.90;;;;;;5046021;28;20081;-83
2022/01/14 04:36:13;;;;;;;1.75;1.65;;;5.60;99.90;;;;;;5062398;28;20044;-84
2022/01/14 04:38:39;;;;;;;2.53;1.17;;;5.50;99.90;;;;;;5067287;28;20091;-84
2022/01/14 04:41:05;;;;;;;0.98;0.95;;;5.50;99.90;;;;;;5050808;28;20044;-84
2022/01/14 04:43:30;;;;;;;4.68;3.28;;;5.50;99.90;;;;;;5078862;28;20119;-84
2022/01/14 04:48:25;;;;;;;1.10;1.00;;;5.40;99.90;;;;;;5087534;28;20068;-83
2022/01/14 04:50:52;;;;;;;1.27;1.10;;;5.30;99.90;;;;;;5076271;28;20036;-84
2022/01/14 04:53:18;;;;;;;1.27;1.17;;;5.30;99.90;;;;;;5071033;28;20041;-84
2022/01/14 04:55:44;;;;;;;9.75;2.47;;;5.40;99.90;;;;;;5064959;28;20024;-84
2022/01/14 04:58:09;;;;;;;1.60;1.50;;;5.40;99.90;;;;;;5078210;28;20075;-84
2022/01/14 05:00:37;;;;;;;1.17;1.08;;;5.50;99.90;;;;;;5075825;28;20090;-84
2022/01/14 05:03:03;;;;;;;1.65;1.45;;;5.60;99.90;;;;;;5068079;28;20040;-83
2022/01/14 05:05:33;;;;;;;1.65;1.55;;;5.40;99.90;;;;;;5062640;28;20112;-83
2022/01/14 05:07:59;;;;;;;1.30;1.20;;;5.40;99.90;;;;;;5055545;28;20075;-83
2022/01/14 05:12:50;;;;;;;2.20;1.55;;;5.50;99.90;;;;;;5076127;28;20044;-84
2022/01/14 05:15:17;;;;;;;0.80;0.80;;;5.50;99.90;;;;;;5057395;28;20052;-83
2022/01/14 05:17:43;;;;;;;1.40;1.30;;;5.50;99.90;;;;;;5066352;28;20056;-83
2022/01/14 05:20:10;;;;;;;1.55;1.45;;;5.40;99.90;;;;;;5078126;28;20040;-83
2022/01/14 05:22:36;;;;;;;1.38;1.25;;;5.40;99.90;;;;;;5070131;28;20049;-84
2022/01/14 05:25:02;;;;;;;1.77;1.67;;;5.40;99.90;;;;;;5071870;28;20064;-83
2022/01/14 05:27:28;;;;;;;0.85;0.85;;;5.40;99.90;;;;;;5076702;28;20048;-83
2022/01/14 05:29:54;;;;;;;0.95;0.95;;;5.40;99.90;;;;;;5077593;28;20045;-84
2022/01/14 05:32:21;;;;;;;11.15;1.67;;;5.30;99.90;;;;;;5051288;28;20144;-83
2022/01/14 05:34:46;;;;;;;5.55;1.80;;;5.30;99.90;;;;;;5064193;28;20117;-84
2022/01/14 05:37:12;;;;;;;1.15;1.08;;;5.40;99.90;;;;;;5060039;28;20037;-83
2022/01/14 05:39:39;;;;;;;1.60;1.13;;;5.40;99.90;;;;;;5078543;28;20074;-84
2022/01/14 05:42:05;;;;;;;1.35;1.08;;;5.50;99.90;;;;;;5059614;28;20044;-83
2022/01/14 05:44:31;;;;;;;1.20;1.10;;;5.50;99.90;;;;;;5064826;28;20041;-84
2022/01/14 05:46:59;;;;;;;1.00;1.00;;;5.40;99.90;;;;;;5074283;28;20505;-83
2022/01/14 05:49:26;;;;;;;4.45;1.77;;;5.30;99.90;;;;;;5067942;28;20044;-83
2022/01/14 05:51:52;;;;;;;1.63;1.52;;;5.40;99.90;;;;;;5073099;28;20047;-83
2022/01/14 05:54:18;;;;;;;3.88;1.85;;;5.40;99.90;;;;;;5054674;28;20075;-82
2022/01/14 05:56:45;;;;;;;1.77;1.63;;;5.40;99.90;;;;;;5073793;28;20394;-84
2022/01/14 05:59:11;;;;;;;1.27;1.17;;;5.40;99.90;;;;;;5071942;28;20069;-83
2022/01/14 06:01:37;;;;;;;1.83;1.45;;;5.50;99.90;;;;;;5076496;28;20112;-84
2022/01/14 06:04:03;;;;;;;1.25;1.15;;;5.40;99.90;;;;;;5073478;28;20075;-84
2022/01/14 06:06:30;;;;;;;5.80;3.60;;;5.40;99.90;;;;;;5063961;28;20071;-85
2022/01/14 06:08:56;;;;;;;0.70;0.70;;;5.40;99.90;;;;;;5077967;28;20087;-84
2022/01/14 06:11:22;;;;;;;0.73;0.73;;;5.30;99.90;;;;;;5077343;28;20063;-84
2022/01/14 06:13:48;;;;;;;1.38;1.27;;;5.30;99.90;;;;;;5058844;28;20037;-84
2022/01/14 06:16:14;;;;;;;1.42;1.33;;;5.40;99.90;;;;;;5075394;28;20049;-85
2022/01/14 06:18:40;;;;;;;0.95;0.95;;;5.30;99.90;;;;;;5073103;28;20045;-83
2022/01/14 06:21:06;;;;;;;1.67;0.90;;;5.30;99.90;;;;;;5074765;28;20055;-84
2022/01/14 06:23:32;;;;;;;2.30;1.42;;;5.30;99.90;;;;;;5064289;28;20044;-84
2022/01/14 06:25:58;;;;;;;5.47;5.07;;;5.30;99.90;;;;;;5078378;28;20055;-84
2022/01/14 06:28:24;;;;;;;1.55;1.45;;;5.30;99.90;;;;;;5076218;28;20044;-84
2022/01/14 06:30:50;;;;;;;1.65;1.55;;;5.30;99.90;;;;;;5075657;28;20037;-84
2022/01/14 06:33:16;;;;;;;0.70;0.70;;;5.30;99.90;;;;;;5047415;28;20096;-84
2022/01/14 06:35:41;;;;;;;1.98;1.40;;;5.30;99.90;;;;;;5072422;28;20087;-84
2022/01/14 06:38:07;;;;;;;1.02;1.00;;;5.30;99.90;;;;;;5059259;28;20132;-84
2022/01/14 06:40:33;;;;;;;2.70;1.30;;;5.30;99.90;;;;;;5071839;28;20048;-84
2022/01/14 06:42:59;;;;;;;1.40;1.30;;;5.30;99.90;;;;;;5055006;28;20070;-84
2022/01/14 06:45:25;;;;;;;1.58;1.08;;;5.30;99.90;;;;;;5074141;28;20094;-84
2022/01/14 06:47:51;;;;;;;0.90;0.90;;;5.40;99.90;;;;;;5077027;28;20040;-83
2022/01/14 06:50:18;;;;;;;0.77;0.75;;;5.40;99.90;;;;;;5074947;28;20072;-84
2022/01/14 06:52:44;;;;;;;1.27;1.17;;;5.40;99.90;;;;;;5076899;28;20094;-84
2022/01/14 06:55:10;;;;;;;1.17;1.08;;;5.50;99.90;;;;;;5069946;28;20049;-84
2022/01/14 06:57:36;;;;;;;1.13;0.98;;;5.50;99.90;;;;;;5076647;28;20040;-83
2022/01/14 07:00:07;;;;;;;1.00;1.00;;;5.50;99.90;;;;;;5062799;28;20043;-84
2022/01/14 07:02:33;;;;;;;0.85;0.85;;;5.60;99.90;;;;;;5074517;28;20104;-83
2022/01/14 07:04:58;;;;;;;1.13;1.02;;;5.70;99.90;;;;;;5075519;28;20064;-84
2022/01/14 07:07:24;;;;;;;0.95;0.90;;;5.50;99.90;;;;;;5072032;28;20037;-84
2022/01/14 07:09:58;;;;;;;4.28;1.23;;;5.50;99.90;;;;;;5062586;28;20078;-84
2022/01/14 07:12:25;;;;;;;0.90;0.90;;;5.60;99.90;;;;;;5073539;28;20060;-84
2022/01/14 07:14:51;;;;;;;1.20;1.10;;;5.70;99.90;;;;;;5075292;28;20406;-83
2022/01/14 07:17:17;;;;;;;3.90;1.90;;;5.60;99.90;;;;;;5070099;28;20050;-84
2022/01/14 07:19:43;;;;;;;1.05;1.05;;;5.60;99.90;;;;;;5060318;28;20061;-83
2022/01/14 07:22:11;;;;;;;0.80;0.80;;;5.60;99.90;;;;;;5071926;28;20075;-83
2022/01/14 07:24:37;;;;;;;3.80;3.45;;;5.70;99.90;;;;;;5072178;28;20095;-83
2022/01/14 07:27:03;;;;;;;0.82;0.82;;;5.60;99.90;;;;;;5061877;28;20032;-82
2022/01/14 07:29:29;;;;;;;0.77;0.77;;;5.60;99.90;;;;;;5051245;28;20389;-83
2022/01/14 07:31:54;;;;;;;0.88;0.88;;;5.60;99.90;;;;;;5062527;28;20096;-82
2022/01/14 07:34:20;;;;;;;1.30;1.20;;;5.70;99.90;;;;;;5072814;28;20040;-83
2022/01/14 07:36:45;;;;;;;4.10;1.67;;;5.60;99.90;;;;;;5071581;28;20068;-83
2022/01/14 07:39:11;;;;;;;0.90;0.90;;;5.60;99.90;;;;;;5072821;28;20036;-82
2022/01/14 07:41:36;;;;;;;4.85;2.20;;;5.70;99.90;;;;;;5050100;28;20045;-83
2022/01/14 07:44:03;;;;;;;0.88;0.88;;;5.60;99.90;;;;;;5067473;28;20528;-83
2022/01/14 07:46:29;;;;;;;1.48;1.17;;;5.60;99.90;;;;;;5065674;28;20120;-82
2022/01/14 07:48:55;;;;;;;6.13;1.83;;;5.70;99.90;;;;;;5072756;28;20037;-83
2022/01/14 07:51:21;;;;;;;1.10;1.00;;;5.60;99.90;;;;;;5072684;28;20065;-83
2022/01/14 07:53:46;;;;;;;0.98;0.98;;;5.60;99.90;;;;;;5075844;28;20064;-83
2022/01/14 07:56:13;;;;;;;0.70;0.70;;;5.70;99.90;;;;;;5069647;28;20071;-83
2022/01/14 07:58:40;;;;;;;0.80;0.80;;;5.70;99.90;;;;;;5077029;28;20047;-83
2022/01/14 08:01:05;;;;;;;0.60;0.60;;;5.70;99.90;;;;;;5076700;28;20112;-82
2022/01/14 08:03:31;;;;;;;1.05;1.00;;;5.70;99.90;;;;;;5075764;28;20071;-84
2022/01/14 08:05:58;;;;;;;0.80;0.80;;;5.70;99.90;;;;;;5058540;28;20095;-83
2022/01/14 08:08:24;;;;;;;1.23;1.10;;;5.70;99.90;;;;;;5080311;28;20071;-83
2022/01/14 08:10:50;;;;;;;0.80;0.80;;;5.70;99.90;;;;;;5078650;28;20437;-83
2022/01/14 08:13:15;;;;;;;1.75;1.65;;;5.70;99.90;;;;;;5058140;28;20037;-82
2022/01/14 08:15:41;;;;;;;1.15;1.10;;;5.70;99.90;;;;;;5074948;28;20151;-80
2022/01/14 08:18:07;;;;;;;1.85;0.80;;;5.80;99.90;;;;;;5077596;28;20055;-79
2022/01/14 08:20:33;;;;;;;0.80;0.80;;;5.80;99.90;;;;;;5077850;28;20083;-80
2022/01/14 08:23:00;;;;;;;1.45;1.35;;;5.80;99.90;;;;;;5081673;28;20048;-80
2022/01/14 08:25:28;;;;;;;0.90;0.90;;;5.80;99.90;;;;;;5081067;28;20047;-80
2022/01/14 08:27:54;;;;;;;20.92;2.10;;;5.80;99.90;;;;;;5075942;28;20048;-79
2022/01/14 08:30:20;;;;;;;1.40;1.30;;;5.80;99.90;;;;;;5079899;28;20037;-80
2022/01/14 08:32:46;;;;;;;1.08;0.98;;;6.10;99.90;;;;;;5077344;28;20076;-79
2022/01/14 08:35:11;;;;;;;0.90;0.90;;;5.80;99.90;;;;;;5078700;28;20040;-79
2022/01/14 08:37:38;;;;;;;0.70;0.70;;;5.90;99.90;;;;;;5081558;28;20040;-79
2022/01/14 08:40:06;;;;;;;6.28;0.90;;;5.80;99.90;;;;;;5078726;28;20032;-84
2022/01/14 08:42:32;;;;;;;0.82;0.82;;;5.80;99.90;;;;;;5073333;28;20036;-83
2022/01/14 08:44:58;;;;;;;1.33;1.23;;;5.90;99.90;;;;;;5061147;28;20041;-83
2022/01/14 08:47:24;;;;;;;1.08;1.08;;;5.90;99.90;;;;;;5060786;28;20037;-83
2022/01/14 08:49:49;;;;;;;0.70;0.70;;;5.90;99.90;;;;;;5076856;28;20049;-84
2022/01/14 08:52:15;;;;;;;1.95;1.83;;;6.00;99.90;;;;;;5071956;28;20032;-83
2022/01/14 08:54:41;;;;;;;0.85;0.85;;;6.00;99.90;;;;;;5061103;28;20037;-84
2022/01/14 08:57:07;;;;;;;1.05;0.95;;;6.00;99.90;;;;;;5063069;28;20041;-84
2022/01/14 08:59:33;;;;;;;1.20;0.95;;;6.10;99.90;;;;;;5082753;28;20032;-84
2022/01/14 09:01:59;;;;;;;0.98;0.98;;;6.10;99.90;;;;;;5072984;28;20076;-83
2022/01/14 09:04:25;;;;;;;0.90;0.90;;;6.10;99.90;;;;;;5069106;28;20060;-83
2022/01/14 09:06:51;;;;;;;0.70;0.70;;;6.20;99.90;;;;;;5070315;28;20127;-82
2022/01/14 09:09:17;;;;;;;1.35;1.25;;;6.20;99.90;;;;;;5079440;28;20131;-85
2022/01/14 09:11:42;;;;;;;0.70;0.70;;;6.30;99.90;;;;;;5078873;28;20489;-85
2022/01/14 09:14:08;;;;;;;1.05;1.05;;;6.20;99.90;;;;;;5076991;28;20035;-83
2022/01/14 09:16:34;;;;;;;0.60;0.60;;;6.20;99.90;;;;;;5075685;28;20063;-84
2022/01/14 09:19:00;;;;;;;0.80;0.80;;;6.30;99.90;;;;;;5080292;28;20044;-84
2022/01/14 09:21:26;;;;;;;0.70;0.70;;;6.30;99.90;;;;;;5075906;28;20037;-84
2022/01/14 09:23:56;;;;;;;1.02;1.00;;;6.30;99.90;;;;;;5075926;28;20067;-84
2022/01/14 09:26:22;;;;;;;0.70;0.70;;;6.40;99.90;;;;;;5076412;28;20126;-83
2022/01/14 09:28:48;;;;;;;1.10;1.10;;;6.40;99.90;;;;;;5079099;28;20056;-83
2022/01/14 09:31:15;;;;;;;1.90;1.80;;;6.40;99.90;;;;;;5078225;28;20174;-83
2022/01/14 09:33:41;;;;;;;0.65;0.65;;;6.40;99.90;;;;;;5075671;28;20040;-83
2022/01/14 09:36:07;;;;;;;1.20;1.10;;;6.50;99.90;;;;;;5058283;28;20119;-86
2022/01/14 09:38:33;;;;;;;0.75;0.75;;;6.50;99.90;;;;;;5077978;28;20071;-85
2022/01/14 09:40:59;;;;;;;0.93;0.93;;;6.50;99.90;;;;;;5078234;28;20104;-84
2022/01/14 09:43:30;;;;;;;0.70;0.70;;;6.50;99.90;;;;;;5055754;28;20040;-83
2022/01/14 09:45:56;;;;;;;0.82;0.82;;;6.60;99.90;;;;;;5056531;28;20062;-84
2022/01/14 09:48:22;;;;;;;1.23;1.13;;;6.60;99.90;;;;;;5077021;28;20086;-82
2022/01/14 09:50:48;;;;;;;0.80;0.80;;;6.60;99.90;;;;;;5069912;28;20041;-82
2022/01/14 09:53:16;;;;;;;5.68;1.05;;;6.70;99.90;;;;;;5084265;28;20120;-83
2022/01/14 09:55:43;;;;;;;0.65;0.65;;;6.70;99.90;;;;;;5075286;28;20079;-82
2022/01/14 09:58:09;;;;;;;1.08;0.70;;;6.80;99.90;;;;;;5079571;28;20070;-83
2022/01/14 10:00:36;;;;;;;0.80;0.80;;;6.80;99.90;;;;;;5072178;28;20071;-81
2022/01/14 10:03:18;;;;;;;0.73;0.73;;;6.80;99.90;;;;;;5072122;28;20037;-83
2022/01/14 10:05:47;;;;;;;0.60;0.60;;;6.90;99.90;;;;;;5076698;28;20040;-83
2022/01/14 10:08:19;;;;;;;0.70;0.70;;;6.90;99.90;;;;;;5056471;28;20060;-83
2022/01/14 10:10:48;;;;;;;0.70;0.70;;;6.90;99.90;;;;;;5068280;28;20161;-83
2022/01/14 10:13:22;;;;;;;0.63;0.63;;;6.90;99.90;;;;;;5055182;28;20029;-82
2022/01/14 10:15:52;;;;;;;0.80;0.80;;;7.00;99.90;;;;;;5052045;28;20072;-82
2022/01/14 10:18:20;;;;;;;0.93;0.93;;;7.00;99.90;;;;;;5070589;28;20113;-84
2022/01/14 10:20:47;;;;;;;1.63;1.00;;;7.00;99.90;;;;;;5071167;28;20158;-82
2022/01/14 10:23:13;;;;;;;0.70;0.70;;;7.00;99.90;;;;;;5071130;28;20064;-82
2022/01/14 10:25:40;;;;;;;0.60;0.60;;;7.10;99.90;;;;;;5058698;28;20112;-83
2022/01/14 10:28:18;;;;;;;0.80;0.80;;;7.10;99.90;;;;;;5060159;28;20199;-83
2022/01/14 10:30:46;;;;;;;0.60;0.60;;;7.10;99.90;;;;;;5059308;28;20041;-84
2022/01/14 10:33:11;;;;;;;1.38;1.05;;;7.10;99.90;;;;;;5059499;28;20036;-83
2022/01/14 10:35:42;;;;;;;0.60;0.60;;;7.10;99.90;;;;;;5074946;28;20335;-83
2022/01/14 10:38:10;;;;;;;0.95;0.95;;;7.10;99.90;;;;;;5056516;28;20037;-83
2022/01/14 10:40:42;;;;;;;0.68;0.68;;;7.10;99.90;;;;;;5076477;28;20101;-84
2022/01/14 10:43:09;;;;;;;0.60;0.60;;;7.10;99.90;;;;;;5073665;28;20041;-83
2022/01/14 10:45:37;;;;;;;0.60;0.60;;;7.20;99.90;;;;;;5075330;28;20044;-83
2022/01/14 10:48:25;;;;;;;0.60;0.60;;;7.20;99.90;;;;;;5073916;28;20469;-83
2022/01/14 10:50:57;;;;;;;0.60;0.60;;;7.10;99.90;;;;;;5058212;28;20063;-83
2022/01/14 10:53:26;;;;;;;0.70;0.70;;;7.20;99.90;;;;;;5074853;28;20177;-82
2022/01/14 10:56:00;;;;;;;0.55;0.55;;;7.10;99.90;;;;;;5076035;28;20057;-82
2022/01/14 10:58:27;;;;;;;;;;;7.10;99.90;;;;;;5077351;28;20106;-81
2022/01/14 11:00:59;;;;;;;0.60;0.60;;;7.20;99.90;;;;;;5077810;28;19969;-83
2022/01/14 11:04:00;;;;;;;0.60;0.60;;;7.20;99.90;;;;;;5072900;28;20097;-82
2022/01/14 11:06:31;;;;;;;0.60;0.60;;;7.20;99.90;;;;;;5077591;28;20036;-83
2022/01/14 11:09:07;;;;;;;0.60;0.60;;;7.20;99.90;;;;;;5065249;28;20076;-83
2022/01/14 11:11:38;;;;;;;0.60;0.60;;;7.20;99.90;;;;;;5059673;28;20037;-83
2022/01/14 11:14:06;;;;;;;0.60;0.60;;;7.20;99.90;;;;;;5078504;28;20048;-84
2022/01/14 11:16:32;;;;;;;0.65;0.65;;;7.20;99.90;;;;;;5061827;28;20045;-83
2022/01/14 11:19:01;;;;;;;0.70;0.60;;;7.20;99.90;;;;;;5059436;28;20051;-83
2022/01/14 11:24:19;;;;;;;0.60;0.60;;;7.20;99.90;;;;;;5077949;28;20068;-81
2022/01/14 11:26:47;;;;;;;0.60;0.60;;;7.20;99.90;;;;;;5079457;28;20044;-82
2022/01/14 11:29:18;;;;;;;0.60;0.60;;;7.30;99.90;;;;;;5071167;28;20056;-82
2022/01/14 11:31:44;;;;;;;3.90;1.50;;;7.30;99.90;;;;;;5077153;28;20120;-82
2022/01/14 11:34:29;;;;;;;0.60;0.60;;;7.30;99.90;;;;;;5078141;28;20633;-82
2022/01/14 11:36:57;;;;;;;0.50;0.50;;;7.30;99.90;;;;;;5072402;28;20081;-82
2022/01/14 11:39:30;;;;;;;0.60;0.60;;;7.30;99.90;;;;;;5074818;28;20036;-82
2022/01/14 11:42:14;;;;;;;0.80;0.80;;;7.40;99.90;;;;;;5071725;28;20078;-82
2022/01/14 11:45:00;;;;;;;0.63;0.63;;;7.40;99.90;;;;;;5077118;28;20047;-82
2022/01/14 11:47:27;;;;;;;0.52;0.52;;;7.40;99.90;;;;;;5075055;28;20083;-82
2022/01/14 11:49:57;;;;;;;2.78;0.90;;;7.50;99.90;;;;;;5073091;28;20052;-82
2022/01/14 11:52:38;;;;;;;0.60;0.60;;;7.50;99.90;;;;;;5071821;28;20049;-82
2022/01/14 11:55:19;;;;;;;0.60;0.60;;;7.50;99.90;;;;;;5070390;28;20132;-82
2022/01/14 11:57:47;;;;;;;1.15;1.08;;;7.40;99.90;;;;;;5069566;28;20104;-82
2022/01/14 12:00:28;;;;;;;0.60;0.60;;;7.40;99.90;;;;;;5071372;28;20109;-82
2022/01/14 12:02:55;;;;;;;0.88;0.88;;;7.40;99.90;;;;;;5056643;28;20036;-84
2022/01/14 12:05:25;;;;;;;0.60;0.60;;;7.40;99.90;;;;;;5077858;28;20120;-83
2022/01/14 12:08:11;;;;;;;0.70;0.70;;;7.40;99.90;;;;;;5071859;28;20037;-84
2022/01/14 12:10:39;;;;;;;0.40;0.40;;;7.40;99.90;;;;;;5070881;28;20072;-84
2022/01/14 12:14:02;;;;;;;0.70;0.70;;;7.40;99.90;;;;;;5074400;28;20079;-84
2022/01/14 12:16:35;;;;;;;0.57;0.57;;;7.50;99.90;;;;;;5060164;28;20141;-83
2022/01/14 12:19:03;;;;;;;0.77;0.77;;;7.50;99.90;;;;;;5070260;28;20075;-84
2022/01/14 12:21:41;;;;;;;0.57;0.57;;;7.50;99.90;;;;;;5073998;28;20040;-84
2022/01/14 12:24:34;;;;;;;0.60;0.60;;;7.50;99.90;;;;;;5073233;28;20063;-84
2022/01/14 12:27:11;;;;;;;1.02;1.02;;;7.40;99.90;;;;;;5073975;28;20094;-83
2022/01/14 12:29:49;;;;;;;0.70;0.70;;;7.40;99.90;;;;;;5070496;28;20044;-84
2022/01/14 12:32:30;;;;;;;0.65;0.65;;;7.40;99.90;;;;;;5069376;28;20162;-84
2022/01/14 12:34:56;;;;;;;0.50;0.50;;;7.50;99.90;;;;;;5075642;28;20055;-84
2022/01/14 12:37:26;;;;;;;0.80;0.80;;;7.40;99.90;;;;;;5077162;28;20068;-84
2022/01/14 12:39:53;;;;;;;0.70;0.70;;;7.40;99.90;;;;;;5069184;28;20114;-85
2022/01/14 12:42:20;;;;;;;0.70;0.70;;;7.40;99.90;;;;;;5053101;28;20136;-84
2022/01/14 12:44:47;;;;;;;0.60;0.60;;;7.40;99.90;;;;;;5074639;28;20539;-85
2022/01/14 12:47:20;;;;;;;0.93;0.93;;;7.40;99.90;;;;;;5054332;28;20040;-84
2022/01/14 12:49:47;;;;;;;0.60;0.60;;;7.40;99.90;;;;;;5071411;28;20529;-85
2022/01/14 12:52:23;;;;;;;0.57;0.57;;;7.40;99.90;;;;;;5060340;28;20044;-85
2022/01/14 12:54:48;;;;;;;0.60;0.60;;;7.50;99.90;;;;;;5058591;28;20043;-84
2022/01/14 12:57:16;;;;;;;0.60;0.60;;;7.50;99.90;;;;;;5057036;28;20072;-84
2022/01/14 12:59:44;;;;;;;0.55;0.55;;;7.40;99.90;;;;;;5058914;28;20036;-84
2022/01/14 13:02:16;;;;;;;0.55;0.55;;;7.40;99.90;;;;;;5060196;28;20051;-84
2022/01/14 13:04:42;;;;;;;0.50;0.50;;;7.40;99.90;;;;;;5077533;28;20105;-84
2022/01/14 13:07:09;;;;;;;0.63;0.63;;;7.40;99.90;;;;;;5070524;28;20060;-85
2022/01/14 13:09:38;;;;;;;0.50;0.50;;;7.40;99.90;;;;;;5072800;28;20148;-84
2022/01/14 13:12:16;;;;;;;0.50;0.50;;;7.40;99.90;;;;;;5051529;28;20068;-84
2022/01/14 13:14:47;;;;;;;0.80;0.80;;;7.40;99.90;;;;;;5074528;28;20098;-84
2022/01/14 13:17:26;;;;;;;0.60;0.60;;;7.40;99.90;;;;;;5077280;28;20055;-84
2022/01/14 13:20:10;;;;;;;0.60;0.60;;;7.30;99.90;;;;;;5072060;28;20072;-85
2022/01/14 13:22:37;;;;;;;;;;;7.30;99.90;;;;;;5054243;28;20041;-84
2022/01/14 13:25:19;;;;;;;0.60;0.60;;;7.40;99.90;;;;;;5070839;28;19928;-84
2022/01/14 13:27:59;;;;;;;0.70;0.70;;;7.30;99.90;;;;;;5058094;28;20037;-84
2022/01/14 13:30:28;;;;;;;2.58;0.85;;;7.30;99.90;;;;;;5076861;28;20056;-84
2022/01/14 13:32:57;;;;;;;1.13;1.10;;;7.30;99.90;;;;;;5078688;28;20048;-84
2022/01/14 13:35:30;;;;;;;0.60;0.60;;;7.30;99.90;;;;;;5073900;28;20044;-84